sensor_id;sensor_type;location;lat;lon;timestamp;P1;durP1;ratioP1;P2;durP2;ratioP2
18789;SDS011;9523;42.650;23.386;2023-03-23T00:00:56;205.77;;;46.30;;
18789;SDS011;9523;42.650;23.386;2023-03-23T00:03:24;172.40;;;43.90;;
18789;SDS011;9523;42.650;23.386;2023-03-23T00:05:54;105.17;;;41.57;;
18789;SDS011;9523;42.650;23.386;2023-03-23T00:08:27;149.83;;;41.23;;
18789;SDS011;9523;42.650;23.386;2023-03-23T00:10:56;90.77;;;39.63;;
18789;SDS011;9523;42.650;23.386;2023-03-23T00:13:23;91.50;;;38.90;;
18789;SDS011;9523;42.650;23.386;2023-03-23T00:15:50;90.77;;;38.50;;
18789;SDS011;9523;42.650;23.386;2023-03-23T00:18:18;78.07;;;37.30;;
18789;SDS011;9523;42.650;23.386;2023-03-23T00:20:47;82.87;;;39.27;;
18789;SDS011;9523;42.650;23.386;2023-03-23T00:23:16;72.83;;;37.90;;
18789;SDS011;9523;42.650;23.386;2023-03-23T00:25:48;71.67;;;38.13;;
18789;SDS011;9523;42.650;23.386;2023-03-23T00:28:19;75.27;;;39.13;;
18789;SDS011;9523;42.650;23.386;2023-03-23T00:30:55;72.33;;;37.37;;
18789;SDS011;9523;42.650;23.386;2023-03-23T00:33:23;70.90;;;37.67;;
18789;SDS011;9523;42.650;23.386;2023-03-23T00:35:51;62.43;;;33.23;;
18789;SDS011;9523;42.650;23.386;2023-03-23T00:38:19;48.60;;;26.70;;
18789;SDS011;9523;42.650;23.386;2023-03-23T00:40:47;49.20;;;27.27;;
18789;SDS011;9523;42.650;23.386;2023-03-23T00:43:13;51.10;;;27.30;;
18789;SDS011;9523;42.650;23.386;2023-03-23T00:45:43;48.73;;;26.37;;
18789;SDS011;9523;42.650;23.386;2023-03-23T00:48:14;43.57;;;24.60;;
18789;SDS011;9523;42.650;23.386;2023-03-23T00:50:41;33.87;;;20.17;;
18789;SDS011;9523;42.650;23.386;2023-03-23T00:53:08;27.90;;;18.87;;
18789;SDS011;9523;42.650;23.386;2023-03-23T00:55:35;27.10;;;17.90;;
18789;SDS011;9523;42.650;23.386;2023-03-23T00:58:01;26.07;;;16.00;;
18789;SDS011;9523;42.650;23.386;2023-03-23T01:00:28;24.03;;;14.93;;
18789;SDS011;9523;42.650;23.386;2023-03-23T01:02:57;21.80;;;13.73;;
18789;SDS011;9523;42.650;23.386;2023-03-23T01:05:24;22.67;;;12.87;;
18789;SDS011;9523;42.650;23.386;2023-03-23T01:07:57;21.73;;;13.13;;
18789;SDS011;9523;42.650;23.386;2023-03-23T01:10:24;23.13;;;13.37;;
18789;SDS011;9523;42.650;23.386;2023-03-23T01:12:52;25.77;;;13.83;;
18789;SDS011;9523;42.650;23.386;2023-03-23T01:15:20;23.13;;;14.13;;
18789;SDS011;9523;42.650;23.386;2023-03-23T01:17:47;23.70;;;14.77;;
18789;SDS011;9523;42.650;23.386;2023-03-23T01:20:15;24.43;;;14.10;;
18789;SDS011;9523;42.650;23.386;2023-03-23T01:22:42;28.40;;;14.73;;
18789;SDS011;9523;42.650;23.386;2023-03-23T01:25:10;25.57;;;15.10;;
18789;SDS011;9523;42.650;23.386;2023-03-23T01:27:38;28.83;;;17.27;;
18789;SDS011;9523;42.650;23.386;2023-03-23T01:30:06;25.30;;;15.97;;
18789;SDS011;9523;42.650;23.386;2023-03-23T01:32:35;30.60;;;18.17;;
18789;SDS011;9523;42.650;23.386;2023-03-23T01:35:02;31.40;;;18.70;;
18789;SDS011;9523;42.650;23.386;2023-03-23T01:37:30;31.80;;;18.63;;
18789;SDS011;9523;42.650;23.386;2023-03-23T01:40:00;32.87;;;18.43;;
18789;SDS011;9523;42.650;23.386;2023-03-23T01:42:31;33.23;;;18.00;;
18789;SDS011;9523;42.650;23.386;2023-03-23T01:47:58;38.67;;;21.10;;
18789;SDS011;9523;42.650;23.386;2023-03-23T01:50:30;42.40;;;22.23;;
18789;SDS011;9523;42.650;23.386;2023-03-23T01:53:06;41.33;;;23.53;;
18789;SDS011;9523;42.650;23.386;2023-03-23T01:55:37;49.57;;;26.40;;
18789;SDS011;9523;42.650;23.386;2023-03-23T01:58:06;51.93;;;27.93;;
18789;SDS011;9523;42.650;23.386;2023-03-23T02:00:34;51.10;;;28.93;;
18789;SDS011;9523;42.650;23.386;2023-03-23T02:03:02;56.17;;;29.33;;
18789;SDS011;9523;42.650;23.386;2023-03-23T02:05:30;60.73;;;30.07;;
18789;SDS011;9523;42.650;23.386;2023-03-23T02:08:00;59.87;;;31.17;;
18789;SDS011;9523;42.650;23.386;2023-03-23T02:10:32;59.83;;;30.87;;
18789;SDS011;9523;42.650;23.386;2023-03-23T02:13:00;60.00;;;31.10;;
18789;SDS011;9523;42.650;23.386;2023-03-23T02:15:31;57.23;;;29.23;;
18789;SDS011;9523;42.650;23.386;2023-03-23T02:18:06;55.93;;;29.77;;
18789;SDS011;9523;42.650;23.386;2023-03-23T02:20:44;47.33;;;26.90;;
18789;SDS011;9523;42.650;23.386;2023-03-23T02:23:27;51.40;;;27.37;;
18789;SDS011;9523;42.650;23.386;2023-03-23T02:26:19;52.73;;;28.50;;
18789;SDS011;9523;42.650;23.386;2023-03-23T02:32:04;53.87;;;28.43;;
18789;SDS011;9523;42.650;23.386;2023-03-23T02:34:44;53.97;;;28.97;;
18789;SDS011;9523;42.650;23.386;2023-03-23T02:37:14;34.57;;;19.37;;
18789;SDS011;9523;42.650;23.386;2023-03-23T02:39:48;35.07;;;20.17;;
18789;SDS011;9523;42.650;23.386;2023-03-23T02:42:20;32.77;;;18.77;;
18789;SDS011;9523;42.650;23.386;2023-03-23T02:44:50;36.97;;;19.53;;
18789;SDS011;9523;42.650;23.386;2023-03-23T02:47:21;29.83;;;18.17;;
18789;SDS011;9523;42.650;23.386;2023-03-23T02:49:53;32.87;;;18.87;;
18789;SDS011;9523;42.650;23.386;2023-03-23T02:52:22;29.60;;;18.07;;
18789;SDS011;9523;42.650;23.386;2023-03-23T02:54:52;28.80;;;17.53;;
18789;SDS011;9523;42.650;23.386;2023-03-23T02:57:21;28.97;;;17.73;;
18789;SDS011;9523;42.650;23.386;2023-03-23T02:59:51;29.73;;;17.67;;
18789;SDS011;9523;42.650;23.386;2023-03-23T03:02:18;31.13;;;18.00;;
18789;SDS011;9523;42.650;23.386;2023-03-23T03:04:52;33.77;;;18.97;;
18789;SDS011;9523;42.650;23.386;2023-03-23T03:10:27;38.47;;;22.13;;
18789;SDS011;9523;42.650;23.386;2023-03-23T03:13:01;32.60;;;18.57;;
18789;SDS011;9523;42.650;23.386;2023-03-23T03:15:37;37.17;;;22.10;;
18789;SDS011;9523;42.650;23.386;2023-03-23T03:18:10;39.60;;;22.77;;
18789;SDS011;9523;42.650;23.386;2023-03-23T03:20:45;35.87;;;19.67;;
18789;SDS011;9523;42.650;23.386;2023-03-23T03:23:18;30.23;;;18.13;;
18789;SDS011;9523;42.650;23.386;2023-03-23T03:25:48;30.97;;;17.60;;
18789;SDS011;9523;42.650;23.386;2023-03-23T03:28:16;32.80;;;17.93;;
18789;SDS011;9523;42.650;23.386;2023-03-23T03:30:47;30.43;;;17.80;;
18789;SDS011;9523;42.650;23.386;2023-03-23T03:33:19;31.77;;;17.30;;
18789;SDS011;9523;42.650;23.386;2023-03-23T03:35:51;30.83;;;16.53;;
18789;SDS011;9523;42.650;23.386;2023-03-23T03:38:21;29.33;;;17.97;;
18789;SDS011;9523;42.650;23.386;2023-03-23T03:40:48;31.47;;;18.17;;
18789;SDS011;9523;42.650;23.386;2023-03-23T03:43:15;28.57;;;17.67;;
18789;SDS011;9523;42.650;23.386;2023-03-23T03:45:42;27.40;;;16.53;;
18789;SDS011;9523;42.650;23.386;2023-03-23T03:48:09;28.40;;;16.63;;
18789;SDS011;9523;42.650;23.386;2023-03-23T03:50:36;25.37;;;15.87;;
18789;SDS011;9523;42.650;23.386;2023-03-23T03:53:05;25.20;;;14.77;;
18789;SDS011;9523;42.650;23.386;2023-03-23T03:55:32;21.23;;;13.37;;
18789;SDS011;9523;42.650;23.386;2023-03-23T03:58:00;24.33;;;13.70;;
18789;SDS011;9523;42.650;23.386;2023-03-23T04:00:27;22.57;;;13.47;;
18789;SDS011;9523;42.650;23.386;2023-03-23T04:02:54;20.90;;;13.83;;
18789;SDS011;9523;42.650;23.386;2023-03-23T04:05:21;23.17;;;14.27;;
18789;SDS011;9523;42.650;23.386;2023-03-23T04:07:49;24.33;;;14.03;;
18789;SDS011;9523;42.650;23.386;2023-03-23T04:10:19;24.77;;;14.27;;
18789;SDS011;9523;42.650;23.386;2023-03-23T04:12:47;23.10;;;13.33;;
18789;SDS011;9523;42.650;23.386;2023-03-23T04:15:14;22.63;;;13.40;;
18789;SDS011;9523;42.650;23.386;2023-03-23T04:17:41;25.43;;;13.67;;
18789;SDS011;9523;42.650;23.386;2023-03-23T04:20:09;22.73;;;13.40;;
18789;SDS011;9523;42.650;23.386;2023-03-23T04:22:40;21.80;;;12.90;;
18789;SDS011;9523;42.650;23.386;2023-03-23T04:25:14;23.40;;;13.50;;
18789;SDS011;9523;42.650;23.386;2023-03-23T04:27:48;21.23;;;12.60;;
18789;SDS011;9523;42.650;23.386;2023-03-23T04:30:19;21.53;;;12.83;;
18789;SDS011;9523;42.650;23.386;2023-03-23T04:32:47;21.83;;;13.27;;
18789;SDS011;9523;42.650;23.386;2023-03-23T04:35:17;23.23;;;13.83;;
18789;SDS011;9523;42.650;23.386;2023-03-23T04:37:46;23.30;;;14.17;;
18789;SDS011;9523;42.650;23.386;2023-03-23T04:40:13;20.60;;;13.03;;
18789;SDS011;9523;42.650;23.386;2023-03-23T04:42:41;26.03;;;14.10;;
18789;SDS011;9523;42.650;23.386;2023-03-23T04:45:12;26.27;;;14.30;;
18789;SDS011;9523;42.650;23.386;2023-03-23T04:47:47;25.07;;;14.40;;
18789;SDS011;9523;42.650;23.386;2023-03-23T04:50:20;21.00;;;14.17;;
18789;SDS011;9523;42.650;23.386;2023-03-23T04:52:49;25.73;;;14.70;;
18789;SDS011;9523;42.650;23.386;2023-03-23T04:55:22;27.17;;;14.60;;
18789;SDS011;9523;42.650;23.386;2023-03-23T04:57:53;22.77;;;14.00;;
18789;SDS011;9523;42.650;23.386;2023-03-23T05:00:22;21.87;;;13.80;;
18789;SDS011;9523;42.650;23.386;2023-03-23T05:02:49;23.70;;;13.97;;
18789;SDS011;9523;42.650;23.386;2023-03-23T05:05:17;24.97;;;14.27;;
18789;SDS011;9523;42.650;23.386;2023-03-23T05:07:45;23.77;;;14.73;;
18789;SDS011;9523;42.650;23.386;2023-03-23T05:10:13;28.40;;;15.03;;
18789;SDS011;9523;42.650;23.386;2023-03-23T05:12:41;26.10;;;14.57;;
18789;SDS011;9523;42.650;23.386;2023-03-23T05:15:09;23.27;;;15.40;;
18789;SDS011;9523;42.650;23.386;2023-03-23T05:17:38;30.10;;;17.07;;
18789;SDS011;9523;42.650;23.386;2023-03-23T05:20:10;32.27;;;18.13;;
18789;SDS011;9523;42.650;23.386;2023-03-23T05:22:39;26.67;;;17.43;;
18789;SDS011;9523;42.650;23.386;2023-03-23T05:25:06;26.23;;;16.80;;
18789;SDS011;9523;42.650;23.386;2023-03-23T05:27:35;27.40;;;17.50;;
18789;SDS011;9523;42.650;23.386;2023-03-23T05:30:07;25.70;;;16.67;;
18789;SDS011;9523;42.650;23.386;2023-03-23T05:32:38;25.37;;;16.03;;
18789;SDS011;9523;42.650;23.386;2023-03-23T05:35:05;34.37;;;19.00;;
18789;SDS011;9523;42.650;23.386;2023-03-23T05:37:32;31.27;;;19.50;;
18789;SDS011;9523;42.650;23.386;2023-03-23T05:39:59;35.20;;;20.23;;
18789;SDS011;9523;42.650;23.386;2023-03-23T05:42:26;32.10;;;20.10;;
18789;SDS011;9523;42.650;23.386;2023-03-23T05:44:53;34.73;;;20.00;;
18789;SDS011;9523;42.650;23.386;2023-03-23T05:47:20;31.70;;;19.43;;
18789;SDS011;9523;42.650;23.386;2023-03-23T05:49:48;31.50;;;19.70;;
18789;SDS011;9523;42.650;23.386;2023-03-23T05:52:16;34.10;;;20.00;;
18789;SDS011;9523;42.650;23.386;2023-03-23T05:54:43;33.47;;;18.90;;
18789;SDS011;9523;42.650;23.386;2023-03-23T05:57:10;28.67;;;18.77;;
18789;SDS011;9523;42.650;23.386;2023-03-23T05:59:36;34.23;;;19.73;;
18789;SDS011;9523;42.650;23.386;2023-03-23T06:02:03;30.57;;;19.53;;
18789;SDS011;9523;42.650;23.386;2023-03-23T06:04:30;33.50;;;20.80;;
18789;SDS011;9523;42.650;23.386;2023-03-23T06:06:59;37.17;;;21.57;;
18789;SDS011;9523;42.650;23.386;2023-03-23T06:09:27;35.30;;;20.90;;
18789;SDS011;9523;42.650;23.386;2023-03-23T06:11:54;35.63;;;22.50;;
18789;SDS011;9523;42.650;23.386;2023-03-23T06:14:21;35.63;;;22.23;;
18789;SDS011;9523;42.650;23.386;2023-03-23T06:16:48;34.23;;;21.63;;
18789;SDS011;9523;42.650;23.386;2023-03-23T06:19:15;33.40;;;21.60;;
18789;SDS011;9523;42.650;23.386;2023-03-23T06:21:42;35.70;;;20.03;;
18789;SDS011;9523;42.650;23.386;2023-03-23T06:24:11;29.63;;;18.37;;
18789;SDS011;9523;42.650;23.386;2023-03-23T06:26:38;25.63;;;16.23;;
18789;SDS011;9523;42.650;23.386;2023-03-23T06:29:08;29.30;;;18.20;;
18789;SDS011;9523;42.650;23.386;2023-03-23T06:31:37;21.30;;;14.23;;
18789;SDS011;9523;42.650;23.386;2023-03-23T06:34:05;17.77;;;12.10;;
18789;SDS011;9523;42.650;23.386;2023-03-23T06:36:34;17.40;;;11.87;;
18789;SDS011;9523;42.650;23.386;2023-03-23T06:39:01;18.53;;;11.83;;
18789;SDS011;9523;42.650;23.386;2023-03-23T06:41:31;15.03;;;10.47;;
18789;SDS011;9523;42.650;23.386;2023-03-23T06:43:58;17.93;;;11.67;;
18789;SDS011;9523;42.650;23.386;2023-03-23T06:46:26;18.87;;;12.07;;
18789;SDS011;9523;42.650;23.386;2023-03-23T06:48:54;20.77;;;12.57;;
18789;SDS011;9523;42.650;23.386;2023-03-23T06:51:22;17.93;;;11.60;;
18789;SDS011;9523;42.650;23.386;2023-03-23T06:53:49;16.93;;;12.40;;
18789;SDS011;9523;42.650;23.386;2023-03-23T06:56:15;16.03;;;12.07;;
18789;SDS011;9523;42.650;23.386;2023-03-23T06:58:44;19.93;;;13.20;;
18789;SDS011;9523;42.650;23.386;2023-03-23T07:01:11;20.60;;;13.37;;
18789;SDS011;9523;42.650;23.386;2023-03-23T07:03:40;20.97;;;13.73;;
18789;SDS011;9523;42.650;23.386;2023-03-23T07:06:07;23.73;;;14.67;;
18789;SDS011;9523;42.650;23.386;2023-03-23T07:08:34;22.87;;;14.27;;
18789;SDS011;9523;42.650;23.386;2023-03-23T07:11:02;23.97;;;13.97;;
18789;SDS011;9523;42.650;23.386;2023-03-23T07:13:30;22.50;;;15.27;;
18789;SDS011;9523;42.650;23.386;2023-03-23T07:15:58;21.37;;;15.00;;
18789;SDS011;9523;42.650;23.386;2023-03-23T07:18:27;23.23;;;15.73;;
18789;SDS011;9523;42.650;23.386;2023-03-23T07:20:54;23.03;;;15.87;;
18789;SDS011;9523;42.650;23.386;2023-03-23T07:23:21;28.47;;;16.43;;
18789;SDS011;9523;42.650;23.386;2023-03-23T07:25:48;24.20;;;16.77;;
18789;SDS011;9523;42.650;23.386;2023-03-23T07:28:15;26.93;;;18.23;;
18789;SDS011;9523;42.650;23.386;2023-03-23T07:30:42;28.97;;;18.43;;
18789;SDS011;9523;42.650;23.386;2023-03-23T07:33:11;32.90;;;21.37;;
18789;SDS011;9523;42.650;23.386;2023-03-23T07:35:37;35.27;;;21.67;;
18789;SDS011;9523;42.650;23.386;2023-03-23T07:38:05;37.13;;;23.20;;
18789;SDS011;9523;42.650;23.386;2023-03-23T07:40:32;34.17;;;22.20;;
18789;SDS011;9523;42.650;23.386;2023-03-23T07:42:59;37.10;;;23.87;;
18789;SDS011;9523;42.650;23.386;2023-03-23T07:45:28;34.83;;;22.73;;
18789;SDS011;9523;42.650;23.386;2023-03-23T07:47:56;44.27;;;23.80;;
18789;SDS011;9523;42.650;23.386;2023-03-23T07:50:24;41.87;;;23.40;;
18789;SDS011;9523;42.650;23.386;2023-03-23T07:52:53;42.37;;;23.77;;
18789;SDS011;9523;42.650;23.386;2023-03-23T07:55:20;34.47;;;22.17;;
18789;SDS011;9523;42.650;23.386;2023-03-23T07:57:50;33.67;;;21.70;;
18789;SDS011;9523;42.650;23.386;2023-03-23T08:00:18;32.30;;;21.43;;
18789;SDS011;9523;42.650;23.386;2023-03-23T08:02:49;37.63;;;23.20;;
18789;SDS011;9523;42.650;23.386;2023-03-23T08:05:17;37.37;;;22.57;;
18789;SDS011;9523;42.650;23.386;2023-03-23T08:07:48;33.57;;;21.87;;
18789;SDS011;9523;42.650;23.386;2023-03-23T08:10:17;33.43;;;20.30;;
18789;SDS011;9523;42.650;23.386;2023-03-23T08:12:51;29.83;;;18.90;;
18789;SDS011;9523;42.650;23.386;2023-03-23T08:15:18;33.43;;;21.20;;
18789;SDS011;9523;42.650;23.386;2023-03-23T08:17:46;29.63;;;19.23;;
18789;SDS011;9523;42.650;23.386;2023-03-23T08:20:14;29.73;;;19.30;;
18789;SDS011;9523;42.650;23.386;2023-03-23T08:22:50;25.00;;;16.70;;
18789;SDS011;9523;42.650;23.386;2023-03-23T08:25:20;23.97;;;16.47;;
18789;SDS011;9523;42.650;23.386;2023-03-23T08:27:48;26.03;;;17.07;;
18789;SDS011;9523;42.650;23.386;2023-03-23T08:30:15;29.33;;;17.30;;
18789;SDS011;9523;42.650;23.386;2023-03-23T08:32:47;23.40;;;15.93;;
18789;SDS011;9523;42.650;23.386;2023-03-23T08:35:15;28.93;;;17.27;;
18789;SDS011;9523;42.650;23.386;2023-03-23T08:37:43;33.70;;;17.20;;
18789;SDS011;9523;42.650;23.386;2023-03-23T08:40:13;20.77;;;13.57;;
18789;SDS011;9523;42.650;23.386;2023-03-23T08:42:44;19.07;;;13.07;;
18789;SDS011;9523;42.650;23.386;2023-03-23T08:45:13;18.87;;;11.60;;
18789;SDS011;9523;42.650;23.386;2023-03-23T08:47:43;16.87;;;10.87;;
18789;SDS011;9523;42.650;23.386;2023-03-23T08:50:12;16.23;;;10.10;;
18789;SDS011;9523;42.650;23.386;2023-03-23T08:52:41;18.90;;;12.33;;
18789;SDS011;9523;42.650;23.386;2023-03-23T08:55:13;23.17;;;13.50;;
18789;SDS011;9523;42.650;23.386;2023-03-23T08:57:40;18.07;;;12.20;;
18789;SDS011;9523;42.650;23.386;2023-03-23T09:00:11;14.83;;;8.60;;
18789;SDS011;9523;42.650;23.386;2023-03-23T09:02:43;9.93;;;7.80;;
18789;SDS011;9523;42.650;23.386;2023-03-23T09:05:10;11.63;;;8.47;;
18789;SDS011;9523;42.650;23.386;2023-03-23T09:07:40;15.37;;;8.53;;
18789;SDS011;9523;42.650;23.386;2023-03-23T09:10:08;13.73;;;8.00;;
18789;SDS011;9523;42.650;23.386;2023-03-23T09:12:41;12.47;;;7.70;;
18789;SDS011;9523;42.650;23.386;2023-03-23T09:15:09;11.87;;;7.97;;
18789;SDS011;9523;42.650;23.386;2023-03-23T09:17:41;14.50;;;8.50;;
18789;SDS011;9523;42.650;23.386;2023-03-23T09:20:10;14.15;;;8.05;;
18789;SDS011;9523;42.650;23.386;2023-03-23T09:22:38;12.93;;;8.27;;
18789;SDS011;9523;42.650;23.386;2023-03-23T09:25:06;9.20;;;7.43;;
18789;SDS011;9523;42.650;23.386;2023-03-23T09:27:34;8.73;;;6.97;;
18789;SDS011;9523;42.650;23.386;2023-03-23T09:30:03;8.13;;;6.60;;
18789;SDS011;9523;42.650;23.386;2023-03-23T09:32:32;10.03;;;7.53;;
18789;SDS011;9523;42.650;23.386;2023-03-23T09:34:59;8.00;;;6.93;;
18789;SDS011;9523;42.650;23.386;2023-03-23T09:37:26;11.53;;;7.77;;
18789;SDS011;9523;42.650;23.386;2023-03-23T09:39:54;9.07;;;7.05;;
18789;SDS011;9523;42.650;23.386;2023-03-23T09:42:26;10.60;;;7.85;;
18789;SDS011;9523;42.650;23.386;2023-03-23T09:45:09;10.38;;;6.63;;
18789;SDS011;9523;42.650;23.386;2023-03-23T09:47:43;7.03;;;6.13;;
18789;SDS011;9523;42.650;23.386;2023-03-23T09:50:19;10.63;;;6.45;;
18789;SDS011;9523;42.650;23.386;2023-03-23T09:52:50;8.80;;;7.15;;
18789;SDS011;9523;42.650;23.386;2023-03-23T09:55:21;10.73;;;7.97;;
18789;SDS011;9523;42.650;23.386;2023-03-23T09:57:51;11.90;;;8.80;;
18789;SDS011;9523;42.650;23.386;2023-03-23T10:00:23;10.32;;;7.30;;
18789;SDS011;9523;42.650;23.386;2023-03-23T10:02:57;13.05;;;8.48;;
18789;SDS011;9523;42.650;23.386;2023-03-23T10:05:30;7.10;;;6.13;;
18789;SDS011;9523;42.650;23.386;2023-03-23T10:07:59;11.35;;;6.57;;
18789;SDS011;9523;42.650;23.386;2023-03-23T10:10:31;8.63;;;5.95;;
18789;SDS011;9523;42.650;23.386;2023-03-23T10:13:06;7.43;;;6.03;;
18789;SDS011;9523;42.650;23.386;2023-03-23T10:15:43;9.05;;;6.28;;
18789;SDS011;9523;42.650;23.386;2023-03-23T10:18:13;8.90;;;6.55;;
18789;SDS011;9523;42.650;23.386;2023-03-23T10:20:46;8.90;;;6.50;;
18789;SDS011;9523;42.650;23.386;2023-03-23T10:26:28;6.88;;;5.85;;
18789;SDS011;9523;42.650;23.386;2023-03-23T10:29:08;11.77;;;7.32;;
18789;SDS011;9523;42.650;23.386;2023-03-23T10:31:42;12.60;;;7.35;;
18789;SDS011;9523;42.650;23.386;2023-03-23T10:34:13;10.18;;;6.13;;
18789;SDS011;9523;42.650;23.386;2023-03-23T10:36:51;7.80;;;6.10;;
18789;SDS011;9523;42.650;23.386;2023-03-23T10:39:26;8.15;;;5.70;;
18789;SDS011;9523;42.650;23.386;2023-03-23T10:42:01;7.32;;;5.68;;
18789;SDS011;9523;42.650;23.386;2023-03-23T10:44:36;7.85;;;5.85;;
18789;SDS011;9523;42.650;23.386;2023-03-23T10:47:07;7.18;;;6.13;;
18789;SDS011;9523;42.650;23.386;2023-03-23T10:49:36;8.65;;;6.18;;
18789;SDS011;9523;42.650;23.386;2023-03-23T10:52:11;6.70;;;5.78;;
18789;SDS011;9523;42.650;23.386;2023-03-23T10:54:48;9.18;;;6.78;;
18789;SDS011;9523;42.650;23.386;2023-03-23T10:57:22;8.25;;;6.05;;
18789;SDS011;9523;42.650;23.386;2023-03-23T10:59:50;10.45;;;8.50;;
18789;SDS011;9523;42.650;23.386;2023-03-23T11:02:19;16.35;;;10.60;;
18789;SDS011;9523;42.650;23.386;2023-03-23T11:04:59;9.48;;;7.88;;
18789;SDS011;9523;42.650;23.386;2023-03-23T11:07:31;10.02;;;6.80;;
18789;SDS011;9523;42.650;23.386;2023-03-23T11:10:05;8.82;;;6.05;;
18789;SDS011;9523;42.650;23.386;2023-03-23T11:12:35;8.70;;;6.40;;
18789;SDS011;9523;42.650;23.386;2023-03-23T11:17:59;7.53;;;5.97;;
18789;SDS011;9523;42.650;23.386;2023-03-23T11:20:28;7.15;;;5.90;;
18789;SDS011;9523;42.650;23.386;2023-03-23T11:23:01;6.40;;;5.57;;
18789;SDS011;9523;42.650;23.386;2023-03-23T11:25:33;7.28;;;5.85;;
18789;SDS011;9523;42.650;23.386;2023-03-23T11:28:13;8.80;;;5.43;;
18789;SDS011;9523;42.650;23.386;2023-03-23T11:30:40;10.25;;;5.57;;
18789;SDS011;9523;42.650;23.386;2023-03-23T11:33:09;7.20;;;6.03;;
18789;SDS011;9523;42.650;23.386;2023-03-23T11:35:42;6.45;;;5.70;;
18789;SDS011;9523;42.650;23.386;2023-03-23T11:38:13;7.18;;;6.30;;
18789;SDS011;9523;42.650;23.386;2023-03-23T11:40:43;7.20;;;5.63;;
18789;SDS011;9523;42.650;23.386;2023-03-23T11:43:17;7.43;;;5.20;;
18789;SDS011;9523;42.650;23.386;2023-03-23T11:45:48;8.13;;;5.57;;
18789;SDS011;9523;42.650;23.386;2023-03-23T11:48:25;7.45;;;5.50;;
18789;SDS011;9523;42.650;23.386;2023-03-23T11:50:59;9.45;;;8.48;;
18789;SDS011;9523;42.650;23.386;2023-03-23T11:53:34;7.18;;;6.10;;
18789;SDS011;9523;42.650;23.386;2023-03-23T11:56:12;11.00;;;6.30;;
18789;SDS011;9523;42.650;23.386;2023-03-23T11:58:44;9.65;;;6.07;;
18789;SDS011;9523;42.650;23.386;2023-03-23T12:01:13;7.88;;;5.45;;
18789;SDS011;9523;42.650;23.386;2023-03-23T12:04:00;7.82;;;6.15;;
18789;SDS011;9523;42.650;23.386;2023-03-23T12:06:40;8.50;;;6.18;;
18789;SDS011;9523;42.650;23.386;2023-03-23T12:09:17;10.60;;;8.05;;
18789;SDS011;9523;42.650;23.386;2023-03-23T12:12:02;10.00;;;6.25;;
18789;SDS011;9523;42.650;23.386;2023-03-23T12:14:46;9.88;;;6.43;;
18789;SDS011;9523;42.650;23.386;2023-03-23T12:17:27;5.70;;;5.10;;
18789;SDS011;9523;42.650;23.386;2023-03-23T12:20:10;8.70;;;4.97;;
18789;SDS011;9523;42.650;23.386;2023-03-23T12:22:50;7.43;;;5.28;;
18789;SDS011;9523;42.650;23.386;2023-03-23T12:25:33;7.45;;;5.63;;
18789;SDS011;9523;42.650;23.386;2023-03-23T12:28:20;6.57;;;5.25;;
18789;SDS011;9523;42.650;23.386;2023-03-23T12:30:55;8.32;;;5.00;;
18789;SDS011;9523;42.650;23.386;2023-03-23T12:33:34;5.15;;;4.65;;
18789;SDS011;9523;42.650;23.386;2023-03-23T12:36:15;7.85;;;5.28;;
18789;SDS011;9523;42.650;23.386;2023-03-23T12:39:03;8.43;;;6.30;;
18789;SDS011;9523;42.650;23.386;2023-03-23T12:41:59;9.05;;;6.18;;
18789;SDS011;9523;42.650;23.386;2023-03-23T12:44:34;10.30;;;6.97;;
18789;SDS011;9523;42.650;23.386;2023-03-23T12:47:14;7.25;;;5.30;;
18789;SDS011;9523;42.650;23.386;2023-03-23T12:49:50;9.07;;;5.47;;
18789;SDS011;9523;42.650;23.386;2023-03-23T12:52:23;5.55;;;4.32;;
18789;SDS011;9523;42.650;23.386;2023-03-23T12:54:57;5.80;;;5.20;;
18789;SDS011;9523;42.650;23.386;2023-03-23T12:57:31;8.70;;;5.93;;
18789;SDS011;9523;42.650;23.386;2023-03-23T13:00:05;9.60;;;6.28;;
18789;SDS011;9523;42.650;23.386;2023-03-23T13:02:40;11.45;;;6.82;;
18789;SDS011;9523;42.650;23.386;2023-03-23T13:05:12;5.95;;;5.35;;
18789;SDS011;9523;42.650;23.386;2023-03-23T13:07:54;10.02;;;6.28;;
18789;SDS011;9523;42.650;23.386;2023-03-23T13:10:26;9.13;;;6.35;;
18789;SDS011;9523;42.650;23.386;2023-03-23T13:12:57;6.45;;;5.68;;
18789;SDS011;9523;42.650;23.386;2023-03-23T13:15:27;8.35;;;5.20;;
18789;SDS011;9523;42.650;23.386;2023-03-23T13:18:04;6.95;;;4.90;;
18789;SDS011;9523;42.650;23.386;2023-03-23T13:23:31;5.57;;;4.97;;
18789;SDS011;9523;42.650;23.386;2023-03-23T13:26:02;8.48;;;5.82;;
18789;SDS011;9523;42.650;23.386;2023-03-23T13:28:47;6.07;;;5.47;;
18789;SDS011;9523;42.650;23.386;2023-03-23T13:31:20;6.22;;;5.03;;
18789;SDS011;9523;42.650;23.386;2023-03-23T13:33:52;5.97;;;4.95;;
18789;SDS011;9523;42.650;23.386;2023-03-23T13:36:26;8.18;;;5.28;;
18789;SDS011;9523;42.650;23.386;2023-03-23T13:38:57;6.18;;;5.07;;
18789;SDS011;9523;42.650;23.386;2023-03-23T13:41:25;6.40;;;5.05;;
18789;SDS011;9523;42.650;23.386;2023-03-23T13:44:04;9.43;;;5.10;;
18789;SDS011;9523;42.650;23.386;2023-03-23T13:46:41;5.13;;;4.63;;
18789;SDS011;9523;42.650;23.386;2023-03-23T13:49:17;8.68;;;5.55;;
18789;SDS011;9523;42.650;23.386;2023-03-23T13:51:51;6.63;;;5.03;;
18789;SDS011;9523;42.650;23.386;2023-03-23T13:54:29;10.10;;;5.38;;
18789;SDS011;9523;42.650;23.386;2023-03-23T13:56:59;7.93;;;5.30;;
18789;SDS011;9523;42.650;23.386;2023-03-23T13:59:32;5.78;;;4.60;;
18789;SDS011;9523;42.650;23.386;2023-03-23T14:05:26;9.50;;;5.10;;
18789;SDS011;9523;42.650;23.386;2023-03-23T14:07:59;6.65;;;5.03;;
18789;SDS011;9523;42.650;23.386;2023-03-23T14:10:34;7.30;;;5.15;;
18789;SDS011;9523;42.650;23.386;2023-03-23T14:13:04;7.15;;;5.00;;
18789;SDS011;9523;42.650;23.386;2023-03-23T14:15:42;10.18;;;5.10;;
18789;SDS011;9523;42.650;23.386;2023-03-23T14:18:13;14.27;;;6.40;;
18789;SDS011;9523;42.650;23.386;2023-03-23T14:20:42;7.13;;;5.15;;
18789;SDS011;9523;42.650;23.386;2023-03-23T14:23:16;13.35;;;5.00;;
18789;SDS011;9523;42.650;23.386;2023-03-23T14:25:46;5.20;;;4.43;;
18789;SDS011;9523;42.650;23.386;2023-03-23T14:28:21;6.20;;;4.40;;
18789;SDS011;9523;42.650;23.386;2023-03-23T14:30:49;6.00;;;4.97;;
18789;SDS011;9523;42.650;23.386;2023-03-23T14:33:19;8.43;;;5.20;;
18789;SDS011;9523;42.650;23.386;2023-03-23T14:35:47;7.00;;;4.63;;
18789;SDS011;9523;42.650;23.386;2023-03-23T14:38:18;5.32;;;4.72;;
18789;SDS011;9523;42.650;23.386;2023-03-23T14:40:53;5.10;;;4.63;;
18789;SDS011;9523;42.650;23.386;2023-03-23T14:43:20;8.85;;;5.10;;
18789;SDS011;9523;42.650;23.386;2023-03-23T14:45:52;7.55;;;5.53;;
18789;SDS011;9523;42.650;23.386;2023-03-23T14:48:21;8.23;;;5.53;;
18789;SDS011;9523;42.650;23.386;2023-03-23T14:50:49;9.85;;;4.88;;
18789;SDS011;9523;42.650;23.386;2023-03-23T14:53:18;7.25;;;5.00;;
18789;SDS011;9523;42.650;23.386;2023-03-23T14:55:49;5.90;;;4.70;;
18789;SDS011;9523;42.650;23.386;2023-03-23T14:58:18;9.02;;;5.15;;
18789;SDS011;9523;42.650;23.386;2023-03-23T15:00:48;9.55;;;5.50;;
18789;SDS011;9523;42.650;23.386;2023-03-23T15:03:21;6.38;;;4.53;;
18789;SDS011;9523;42.650;23.386;2023-03-23T15:05:49;8.90;;;5.32;;
18789;SDS011;9523;42.650;23.386;2023-03-23T15:08:20;10.20;;;5.97;;
18789;SDS011;9523;42.650;23.386;2023-03-23T15:10:55;6.50;;;5.65;;
18789;SDS011;9523;42.650;23.386;2023-03-23T15:13:27;6.68;;;5.68;;